Time;durP1;ratioP1;P1;durP2;ratioP2;P2;SDS_P1;SDS_P2;PMS_P1;PMS_P2;Temp;Humidity;BMP_temperature;BMP_pressure;BME280_temperature;BME280_humidity;BME280_pressure;Samples;Min_cycle;Max_cycle;Signal;HPM_P1;HPM_P2
2022/05/11 00:01:52;;;;;;;7.40;6.80;;;21.20;59.90;;;;;;5071160;28;20802;-69
2022/05/11 00:04:18;;;;;;;7.10;6.60;;;21.20;59.90;;;;;;5068745;28;20426;-70
2022/05/11 00:06:44;;;;;;;6.63;6.23;;;21.20;59.90;;;;;;5075921;28;20627;-70
2022/05/11 00:09:12;;;;;;;7.37;6.87;;;21.20;60.00;;;;;;5075785;28;20397;-69
2022/05/11 00:11:38;;;;;;;7.70;7.13;;;21.20;60.00;;;;;;5075722;28;20405;-70
2022/05/11 00:14:05;;;;;;;7.23;6.73;;;21.10;60.00;;;;;;5075592;28;20976;-71
2022/05/11 00:16:31;;;;;;;7.33;6.77;;;21.10;60.00;;;;;;5075517;28;20410;-69
2022/05/11 00:18:57;;;;;;;7.57;6.97;;;21.10;60.00;;;;;;5075550;28;20405;-70
2022/05/11 00:21:22;;;;;;;7.60;7.10;;;21.10;60.00;;;;;;5075494;28;20750;-72
2022/05/11 00:23:50;;;;;;;7.53;7.03;;;21.10;60.00;;;;;;5075722;28;20178;-71
2022/05/11 00:26:16;;;;;;;6.90;6.40;;;21.10;60.00;;;;;;5075318;28;20191;-69
2022/05/11 00:28:42;;;;;;;7.13;6.60;;;21.10;60.00;;;;;;5075226;28;20449;-68
2022/05/11 00:31:09;;;;;;;7.27;6.73;;;21.10;60.00;;;;;;5074436;28;20180;-70
2022/05/11 00:33:34;;;;;;;6.57;6.17;;;21.10;60.00;;;;;;5075505;28;20548;-72
2022/05/11 00:36:01;;;;;;;7.27;6.73;;;21.10;60.00;;;;;;5075123;28;20508;-71
2022/05/11 00:38:29;;;;;;;7.77;7.17;;;21.10;60.00;;;;;;5075162;28;20171;-71
2022/05/11 00:40:58;;;;;;;7.43;6.83;;;21.10;60.00;;;;;;5075360;28;20750;-69
2022/05/11 00:43:34;;;;;;;6.70;6.20;;;21.10;60.00;;;;;;5074074;28;20504;-69
2022/05/11 00:46:27;;;;;;;7.07;6.57;;;21.10;60.00;;;;;;5074936;28;20428;-71
2022/05/11 00:51:52;;;;;;;6.20;5.80;;;21.10;60.00;;;;;;5071711;28;21035;-71
2022/05/11 00:54:20;;;;;;;7.13;6.63;;;21.10;60.00;;;;;;5061129;28;20405;-69
2022/05/11 00:56:50;;;;;;;6.50;6.07;;;21.10;60.00;;;;;;5063170;28;20525;-70
2022/05/11 00:59:20;;;;;;;6.50;6.10;;;21.10;60.00;;;;;;5074785;28;20397;-69
2022/05/11 01:01:46;;;;;;;7.10;6.60;;;21.10;60.00;;;;;;5067881;28;20903;-70
2022/05/11 01:04:19;;;;;;;6.80;6.30;;;21.10;60.00;;;;;;5069235;28;20405;-70
2022/05/11 01:06:45;;;;;;;6.87;6.37;;;21.10;60.00;;;;;;5074767;28;20417;-70
2022/05/11 01:09:12;;;;;;;7.07;6.57;;;21.10;60.00;;;;;;5074612;28;20417;-70
2022/05/11 01:11:47;;;;;;;6.70;6.20;;;21.10;60.00;;;;;;5074572;28;20463;-70
2022/05/11 01:14:15;;;;;;;6.90;6.40;;;21.10;60.00;;;;;;5073604;28;20478;-70
2022/05/11 01:16:41;;;;;;;7.30;6.80;;;21.10;60.00;;;;;;5074464;28;20478;-69
2022/05/11 01:19:12;;;;;;;6.80;6.40;;;21.10;60.00;;;;;;5074484;28;20402;-69
2022/05/11 01:21:46;;;;;;;6.70;6.23;;;21.10;60.00;;;;;;5074478;28;20740;-68
2022/05/11 01:24:42;;;;;;;7.43;6.93;;;21.10;60.00;;;;;;5074396;28;20409;-69
2022/05/11 01:27:34;;;;;;;6.97;6.47;;;21.10;60.00;;;;;;5054781;28;20469;-69
2022/05/11 01:30:14;;;;;;;6.20;5.80;;;21.10;60.00;;;;;;5074404;28;20463;-69
2022/05/11 01:32:43;;;;;;;7.40;6.90;;;21.10;60.00;;;;;;5074301;28;20413;-69
2022/05/11 01:35:08;;;;;;;6.47;5.97;;;21.10;60.00;;;;;;5074292;28;20866;-70
2022/05/11 01:37:43;;;;;;;6.23;5.73;;;21.10;60.00;;;;;;5074203;28;20432;-70
2022/05/11 01:40:09;;;;;;;6.80;6.30;;;21.10;60.00;;;;;;5074320;28;20162;-68
2022/05/11 01:42:35;;;;;;;7.23;6.73;;;21.10;60.00;;;;;;5074022;28;20524;-71
2022/05/11 01:45:00;;;;;;;6.63;6.20;;;21.10;60.00;;;;;;5074184;28;20197;-68
2022/05/11 01:47:26;;;;;;;6.43;5.93;;;21.10;60.00;;;;;;5073853;28;20675;-68
2022/05/11 01:49:52;;;;;;;7.17;6.67;;;21.10;60.00;;;;;;5074130;28;20202;-70
2022/05/11 01:52:17;;;;;;;6.33;5.93;;;21.10;60.00;;;;;;5074148;28;20656;-70
2022/05/11 01:54:43;;;;;;;7.00;6.50;;;21.10;60.00;;;;;;5073124;28;20209;-69
2022/05/11 01:57:08;;;;;;;6.73;6.23;;;21.10;59.90;;;;;;5073984;28;20187;-69
2022/05/11 01:59:34;;;;;;;6.37;5.87;;;21.10;60.00;;;;;;5074051;28;20183;-69
2022/05/11 02:02:00;;;;;;;7.10;6.60;;;21.10;60.00;;;;;;5074059;28;20269;-69
2022/05/11 02:09:54;;;;;;;6.23;5.83;;;21.00;60.00;;;;;;5074255;28;20440;-68
2022/05/11 02:12:20;;;;;;;6.70;6.20;;;21.10;60.00;;;;;;5073914;28;20401;-68
2022/05/11 02:14:45;;;;;;;6.90;6.40;;;21.10;60.00;;;;;;5073889;28;20194;-69
2022/05/11 02:17:12;;;;;;;6.10;5.70;;;21.10;60.00;;;;;;5073789;28;20191;-69
2022/05/11 02:19:37;;;;;;;6.20;5.80;;;21.10;60.00;;;;;;5074158;28;20176;-70
2022/05/11 02:22:04;;;;;;;6.63;6.13;;;21.00;60.00;;;;;;5073818;28;20408;-70
2022/05/11 02:24:29;;;;;;;6.57;6.07;;;21.00;60.00;;;;;;5073790;28;20190;-70
2022/05/11 02:26:55;;;;;;;6.37;5.90;;;21.00;60.00;;;;;;5072669;28;20801;-71
2022/05/11 02:29:21;;;;;;;6.60;6.17;;;21.10;60.00;;;;;;5072822;28;20182;-69
2022/05/11 02:31:47;;;;;;;6.93;6.47;;;21.10;60.00;;;;;;5073799;28;20163;-69
2022/05/11 02:35:12;;;;;;;6.40;6.00;;;21.00;60.00;;;;;;5073621;28;20508;-70
2022/05/11 02:36:58;;;;;;;6.50;6.10;;;21.00;60.00;;;;;;5073536;28;20195;-70
2022/05/11 02:39:24;;;;;;;6.27;5.87;;;21.00;60.00;;;;;;5073682;28;20413;-69
2022/05/11 02:41:50;;;;;;;6.87;6.40;;;21.00;60.00;;;;;;5072657;28;20241;-69
2022/05/11 02:44:15;;;;;;;6.30;5.90;;;21.00;60.00;;;;;;5073657;28;20164;-69
2022/05/11 02:46:41;;;;;;;6.53;6.13;;;21.00;60.00;;;;;;5073181;28;20241;-69
2022/05/11 02:49:07;;;;;;;6.73;6.33;;;21.10;60.00;;;;;;5073648;28;20241;-69
2022/05/11 02:51:33;;;;;;;5.93;5.53;;;21.00;60.00;;;;;;5073601;28;20859;-69
2022/05/11 02:53:58;;;;;;;6.27;5.87;;;21.00;60.00;;;;;;5073887;28;20163;-69
2022/05/11 02:56:24;;;;;;;6.73;6.33;;;21.00;60.00;;;;;;5077032;28;20183;-69
2022/05/11 02:58:50;;;;;;;6.80;6.40;;;21.00;59.90;;;;;;5077354;28;20175;-70
2022/05/11 03:01:15;;;;;;;6.83;6.33;;;21.00;60.00;;;;;;5077068;28;20189;-69
2022/05/11 03:03:41;;;;;;;7.13;6.63;;;21.00;60.00;;;;;;5076989;28;20198;-68
2022/05/11 03:06:07;;;;;;;6.80;6.30;;;21.00;60.00;;;;;;5076875;28;20194;-68
2022/05/11 03:08:34;;;;;;;6.70;6.20;;;21.00;60.00;;;;;;5077098;28;20523;-69
2022/05/11 03:11:00;;;;;;;6.07;5.67;;;21.00;60.00;;;;;;5076867;28;20859;-69
2022/05/11 03:13:26;;;;;;;6.10;5.70;;;21.00;60.00;;;;;;5076799;28;20407;-70
2022/05/11 03:15:53;;;;;;;6.43;6.03;;;21.00;60.00;;;;;;5075767;28;20205;-69
2022/05/11 03:18:18;;;;;;;6.57;6.07;;;21.00;59.90;;;;;;5076767;28;20405;-70
2022/05/11 03:20:44;;;;;;;6.30;5.90;;;21.00;59.90;;;;;;5076712;28;20410;-70
2022/05/11 03:23:09;;;;;;;6.20;5.80;;;21.00;59.90;;;;;;5075692;28;20186;-68
2022/05/11 03:25:35;;;;;;;6.07;5.67;;;21.00;59.90;;;;;;5076527;28;20217;-70
2022/05/11 03:28:01;;;;;;;6.17;5.77;;;21.00;59.90;;;;;;5076496;28;20237;-70
2022/05/11 03:30:27;;;;;;;6.13;5.63;;;21.00;59.90;;;;;;5076476;28;20529;-70
2022/05/11 03:35:37;;;;;;;6.57;5.97;;;21.00;59.90;;;;;;5076395;28;20201;-70
2022/05/11 03:38:03;;;;;;;5.97;5.57;;;21.00;59.90;;;;;;5076367;28;20413;-69
2022/05/11 03:40:29;;;;;;;6.83;6.33;;;21.00;60.00;;;;;;5076587;28;20194;-71
2022/05/11 03:42:55;;;;;;;6.57;6.10;;;21.00;60.00;;;;;;5076300;28;20405;-70
2022/05/11 03:45:25;;;;;;;5.97;5.57;;;21.00;60.00;;;;;;5076180;28;20623;-68
2022/05/11 03:47:51;;;;;;;5.80;5.40;;;21.00;59.90;;;;;;5075068;28;20299;-70
2022/05/11 03:50:20;;;;;;;5.73;5.33;;;21.00;59.90;;;;;;5076173;28;20405;-70
2022/05/11 03:52:46;;;;;;;6.93;6.50;;;21.00;60.00;;;;;;5076037;28;20401;-69
2022/05/11 03:55:13;;;;;;;6.00;5.60;;;21.00;60.00;;;;;;5076338;28;20554;-68
2022/05/11 03:57:39;;;;;;;6.60;6.20;;;21.00;59.90;;;;;;5075867;28;20436;-68
2022/05/11 04:00:08;;;;;;;6.70;6.20;;;21.00;59.90;;;;;;5074241;28;20412;-70
2022/05/11 04:02:35;;;;;;;6.17;5.73;;;21.00;60.00;;;;;;5068798;28;20418;-70
2022/05/11 04:05:00;;;;;;;5.90;5.50;;;21.00;59.90;;;;;;5061936;28;20422;-68
2022/05/11 04:07:26;;;;;;;6.67;6.20;;;21.00;60.00;;;;;;5060315;28;20495;-69
2022/05/11 04:09:51;;;;;;;6.00;5.60;;;21.00;59.90;;;;;;5075772;28;20159;-71
2022/05/11 04:12:17;;;;;;;5.47;5.10;;;21.00;59.90;;;;;;5075701;28;20602;-69
2022/05/11 04:14:43;;;;;;;6.13;5.73;;;21.00;59.90;;;;;;5075929;28;20290;-69
2022/05/11 04:17:10;;;;;;;6.63;6.20;;;21.00;59.90;;;;;;5075579;28;20501;-70
2022/05/11 04:19:36;;;;;;;6.87;6.37;;;21.00;59.90;;;;;;5075516;28;20197;-70
2022/05/11 04:22:02;;;;;;;6.53;6.03;;;21.00;59.90;;;;;;5075510;28;20405;-69
2022/05/11 04:24:28;;;;;;;6.30;5.90;;;21.00;60.00;;;;;;5075388;28;20420;-70
2022/05/11 04:26:53;;;;;;;5.90;5.60;;;21.00;59.90;;;;;;5075252;28;20448;-68
2022/05/11 04:29:19;;;;;;;6.57;6.07;;;21.00;59.90;;;;;;5075385;28;20178;-69
2022/05/11 04:31:45;;;;;;;6.30;5.90;;;21.00;60.00;;;;;;5074456;28;20171;-71
2022/05/11 04:34:13;;;;;;;6.10;5.70;;;21.00;60.00;;;;;;5075296;28;20458;-69
2022/05/11 04:36:39;;;;;;;5.50;5.20;;;21.00;59.90;;;;;;5075123;28;20524;-69
2022/05/11 04:39:06;;;;;;;6.23;5.73;;;21.00;60.00;;;;;;5075151;28;20394;-69
2022/05/11 04:41:32;;;;;;;6.97;6.47;;;21.00;60.00;;;;;;5074155;28;20167;-69
2022/05/11 04:43:58;;;;;;;5.53;5.13;;;21.00;59.90;;;;;;5075043;28;20410;-69
2022/05/11 04:46:23;;;;;;;5.37;5.07;;;21.00;59.90;;;;;;5073774;28;20544;-69
2022/05/11 04:48:49;;;;;;;6.33;5.93;;;21.00;59.90;;;;;;5073970;28;20202;-70
2022/05/11 04:51:15;;;;;;;6.00;5.60;;;21.00;59.90;;;;;;5074932;28;20179;-69
2022/05/11 04:53:40;;;;;;;5.67;5.37;;;21.00;60.00;;;;;;5074863;28;20178;-69
2022/05/11 04:56:06;;;;;;;5.73;5.33;;;21.00;60.00;;;;;;5074769;28;20189;-70
2022/05/11 04:58:32;;;;;;;6.67;6.27;;;21.00;60.00;;;;;;5074747;28;20254;-68
2022/05/11 05:00:58;;;;;;;6.40;5.90;;;21.00;60.00;;;;;;5074682;28;20179;-71
2022/05/11 05:03:24;;;;;;;6.40;6.00;;;21.00;60.00;;;;;;5074713;28;20462;-69
2022/05/11 05:05:50;;;;;;;6.60;6.10;;;21.00;60.00;;;;;;5074596;28;20474;-69
2022/05/11 05:08:16;;;;;;;6.60;6.20;;;21.00;60.00;;;;;;5073602;28;20969;-70
2022/05/11 05:10:42;;;;;;;6.37;5.97;;;21.00;60.00;;;;;;5074598;28;20401;-69
2022/05/11 05:13:14;;;;;;;5.43;5.13;;;21.00;60.00;;;;;;5074594;28;20402;-71
2022/05/11 05:15:42;;;;;;;6.67;6.20;;;21.00;60.00;;;;;;5074502;28;20417;-71
2022/05/11 05:18:08;;;;;;;5.87;5.47;;;21.00;60.00;;;;;;5074111;28;20488;-71
2022/05/11 05:20:34;;;;;;;5.80;5.40;;;21.00;60.00;;;;;;5074536;28;20481;-71
2022/05/11 05:23:00;;;;;;;5.97;5.57;;;20.90;60.20;;;;;;5069258;28;20164;-71
2022/05/11 05:25:26;;;;;;;6.07;5.67;;;20.90;60.10;;;;;;5065379;28;20424;-69
2022/05/11 05:27:52;;;;;;;5.90;5.50;;;20.90;60.10;;;;;;5074319;28;20206;-69
2022/05/11 05:33:03;;;;;;;5.70;5.27;;;20.90;60.20;;;;;;5074531;28;20862;-69
2022/05/11 05:35:29;;;;;;;5.83;5.43;;;20.90;60.30;;;;;;5074369;28;20743;-69
2022/05/11 05:37:55;;;;;;;5.80;5.40;;;20.90;60.40;;;;;;5074272;28;20417;-71
2022/05/11 05:40:21;;;;;;;6.30;5.90;;;20.90;60.50;;;;;;5074137;28;20917;-69
2022/05/11 05:42:47;;;;;;;5.77;5.40;;;20.90;60.50;;;;;;5074067;28;20175;-70
2022/05/11 05:45:13;;;;;;;6.67;6.17;;;20.90;60.50;;;;;;5074044;28;20460;-70
2022/05/11 05:47:39;;;;;;;5.97;5.57;;;20.90;60.60;;;;;;5073592;28;20500;-70
2022/05/11 05:50:06;;;;;;;6.10;5.70;;;20.90;60.50;;;;;;5073131;28;20953;-70
2022/05/11 05:52:32;;;;;;;6.20;5.80;;;20.90;60.60;;;;;;5073114;28;20772;-68
2022/05/11 05:54:58;;;;;;;6.33;5.93;;;20.90;60.60;;;;;;5074426;28;20409;-70
2022/05/11 05:57:24;;;;;;;6.67;6.17;;;20.90;60.60;;;;;;5074021;28;20535;-69
2022/05/11 05:59:50;;;;;;;5.93;5.53;;;20.90;60.60;;;;;;5074333;28;20252;-70
2022/05/11 06:02:16;;;;;;;6.10;5.70;;;20.90;60.70;;;;;;5074021;28;20415;-70
2022/05/11 06:04:47;;;;;;;6.07;5.67;;;20.90;60.80;;;;;;5073989;28;20617;-70
2022/05/11 06:07:13;;;;;;;5.90;5.50;;;20.90;60.70;;;;;;5066742;28;20465;-69
2022/05/11 06:09:40;;;;;;;6.63;6.17;;;20.90;60.80;;;;;;5071506;28;20406;-68
2022/05/11 06:12:07;;;;;;;6.63;6.13;;;20.90;60.80;;;;;;5058884;28;20471;-69
2022/05/11 06:14:33;;;;;;;5.70;5.33;;;21.00;60.70;;;;;;5059187;28;20402;-70
2022/05/11 06:16:59;;;;;;;6.07;5.67;;;21.00;60.70;;;;;;5053798;28;20988;-70
2022/05/11 06:19:26;;;;;;;6.63;6.13;;;21.00;60.70;;;;;;5059187;28;20241;-70
2022/05/11 06:21:52;;;;;;;6.00;5.60;;;21.00;60.80;;;;;;5073891;28;20401;-70
2022/05/11 06:24:18;;;;;;;6.40;5.90;;;21.00;60.70;;;;;;5073817;28;20406;-68
2022/05/11 06:26:44;;;;;;;5.70;5.30;;;21.00;60.70;;;;;;5072605;28;20486;-71
2022/05/11 06:29:10;;;;;;;6.00;5.60;;;21.00;60.70;;;;;;5074099;28;20410;-70
2022/05/11 06:31:35;;;;;;;5.90;5.50;;;21.00;60.80;;;;;;5077660;28;20159;-71
2022/05/11 06:34:01;;;;;;;5.67;5.27;;;21.00;60.80;;;;;;5076666;28;20428;-69
2022/05/11 06:36:27;;;;;;;5.80;5.40;;;21.00;60.80;;;;;;5077450;28;20217;-71
2022/05/11 06:38:54;;;;;;;5.97;5.57;;;21.00;60.80;;;;;;5077465;28;20257;-71
2022/05/11 06:41:24;;;;;;;5.83;5.43;;;21.00;60.80;;;;;;5077468;28;20224;-69
2022/05/11 06:43:51;;;;;;;5.90;5.47;;;21.00;60.80;;;;;;5077425;28;20488;-70
2022/05/11 06:46:17;;;;;;;6.37;5.97;;;21.00;60.80;;;;;;5076161;28;20429;-69
2022/05/11 06:48:42;;;;;;;5.30;4.90;;;21.00;60.80;;;;;;5077245;28;20436;-70
2022/05/11 06:51:08;;;;;;;5.50;5.10;;;21.00;60.80;;;;;;5077263;28;20925;-69
2022/05/11 06:59:20;;;;;;;5.53;5.13;;;21.00;60.90;;;;;;5076248;28;20186;-69
2022/05/11 06:59:23;;;;;;;6.00;5.60;;;21.00;60.80;;;;;;5040580;28;20740;-69
2022/05/11 07:01:59;;;;;;;6.53;6.00;;;21.00;61.00;;;;;;5054317;28;20422;-69
2022/05/11 07:04:26;;;;;;;5.67;5.27;;;21.00;61.30;;;;;;5036751;28;20438;-69
2022/05/11 07:06:53;;;;;;;6.97;6.40;;;21.00;61.50;;;;;;5036698;28;21038;-69
2022/05/11 07:09:24;;;;;;;5.63;5.23;;;21.00;61.50;;;;;;5036991;28;20414;-70
2022/05/11 07:14:35;;;;;;;6.20;5.80;;;21.00;61.60;;;;;;5049098;28;20874;-69
2022/05/11 07:17:00;;;;;;;5.97;5.47;;;21.10;61.60;;;;;;5055649;28;20430;-68
2022/05/11 07:19:26;;;;;;;5.70;5.30;;;21.10;61.70;;;;;;5053279;28;20187;-69
2022/05/11 07:21:52;;;;;;;5.60;5.20;;;21.10;61.80;;;;;;5054039;28;20239;-68
2022/05/11 07:24:18;;;;;;;5.77;5.37;;;21.10;61.80;;;;;;5042784;28;20684;-68
2022/05/11 07:26:44;;;;;;;5.80;5.40;;;21.10;61.80;;;;;;5048552;28;20636;-69
2022/05/11 07:29:10;;;;;;;6.00;5.60;;;21.10;61.80;;;;;;5055729;28;20334;-69
2022/05/11 07:31:37;;;;;;;5.93;5.43;;;21.10;61.70;;;;;;5056565;28;20418;-69
2022/05/11 07:34:03;;;;;;;5.10;4.80;;;21.10;62.00;;;;;;5074917;28;20426;-70
2022/05/11 07:36:28;;;;;;;6.17;5.77;;;21.10;62.00;;;;;;5093791;28;20445;-70
2022/05/11 07:38:54;;;;;;;5.70;5.27;;;21.10;62.00;;;;;;5075045;28;20459;-69
2022/05/11 07:41:20;;;;;;;6.20;5.70;;;21.10;62.20;;;;;;5055961;28;20168;-68
2022/05/11 07:43:45;;;;;;;5.90;5.50;;;21.10;62.00;;;;;;5056249;28;20582;-68
2022/05/11 07:46:11;;;;;;;6.17;5.77;;;21.10;62.10;;;;;;5055957;28;20214;-68
2022/05/11 07:48:37;;;;;;;5.57;5.23;;;21.10;62.20;;;;;;5061571;28;20184;-69
2022/05/11 07:51:03;;;;;;;5.47;5.07;;;21.10;62.20;;;;;;5056113;28;20594;-70
2022/05/11 07:53:29;;;;;;;6.83;6.33;;;21.10;62.10;;;;;;5056118;28;20425;-70
2022/05/11 08:01:23;;;;;;;5.47;5.17;;;21.10;62.30;;;;;;5056054;28;20806;-68
2022/05/11 08:03:49;;;;;;;5.60;5.20;;;21.10;62.30;;;;;;5055967;28;20414;-69
2022/05/11 08:06:16;;;;;;;5.53;5.13;;;21.20;62.30;;;;;;5055533;28;20621;-70
2022/05/11 08:08:42;;;;;;;5.90;5.50;;;21.20;62.30;;;;;;5075587;28;20200;-69
2022/05/11 08:11:08;;;;;;;6.50;6.00;;;21.20;62.40;;;;;;5056499;28;20414;-70
2022/05/11 08:13:34;;;;;;;6.40;5.90;;;21.20;62.40;;;;;;5077144;28;20421;-69
2022/05/11 08:16:00;;;;;;;6.10;5.60;;;21.20;62.40;;;;;;5066073;28;20271;-69
2022/05/11 08:18:26;;;;;;;6.17;5.67;;;21.20;62.40;;;;;;5071686;28;20424;-69
2022/05/11 08:20:52;;;;;;;5.80;5.40;;;21.20;62.30;;;;;;5077073;28;20438;-68
2022/05/11 08:23:18;;;;;;;5.80;5.40;;;21.20;62.20;;;;;;5074095;28;20563;-69
2022/05/11 08:25:46;;;;;;;5.80;5.40;;;21.20;62.20;;;;;;5073521;28;20533;-70
2022/05/11 08:28:15;;;;;;;5.40;5.00;;;21.20;62.20;;;;;;5073352;28;20203;-72
2022/05/11 08:33:27;;;;;;;6.13;5.50;;;21.20;62.20;;;;;;5056521;28;20792;-69
2022/05/11 08:36:20;;;;;;;6.30;5.90;;;21.20;62.40;;;;;;5058612;28;20466;-69
2022/05/11 08:38:49;;;;;;;5.93;5.53;;;21.20;62.40;;;;;;5067671;28;20895;-70
2022/05/11 08:41:36;;;;;;;6.33;5.83;;;21.20;62.20;;;;;;5073379;28;20409;-69
2022/05/11 08:44:17;;;;;;;6.30;5.90;;;21.30;62.60;;;;;;5074249;28;20504;-70
2022/05/11 08:47:26;;;;;;;6.03;5.63;;;21.30;62.70;;;;;;5067139;28;20472;-69
2022/05/11 08:49:55;;;;;;;6.17;5.63;;;21.30;62.60;;;;;;5065847;28;20413;-69
2022/05/11 08:52:35;;;;;;;5.90;5.50;;;21.30;62.60;;;;;;5074109;28;20417;-71
2022/05/11 08:55:25;;;;;;;6.30;5.90;;;21.30;62.40;;;;;;5074737;28;20847;-69
2022/05/11 08:57:53;;;;;;;5.97;5.53;;;21.30;62.30;;;;;;5074775;28;20389;-70
2022/05/11 09:00:19;;;;;;;5.97;5.57;;;21.30;62.10;;;;;;5074743;28;20424;-68
2022/05/11 09:03:02;;;;;;;6.00;5.53;;;21.40;62.20;;;;;;5074629;28;20500;-69
2022/05/11 09:05:30;;;;;;;7.47;6.83;;;21.40;62.00;;;;;;5074566;28;20734;-68
2022/05/11 09:07:57;;;;;;;6.67;6.17;;;21.40;62.10;;;;;;5074487;28;20999;-68
2022/05/11 09:10:23;;;;;;;6.03;5.50;;;21.40;62.10;;;;;;5073567;28;20484;-70
2022/05/11 09:12:58;;;;;;;6.80;6.20;;;21.30;62.20;;;;;;5074510;28;20474;-68
2022/05/11 09:15:46;;;;;;;6.90;6.17;;;21.40;62.00;;;;;;5074359;28;20159;-69
2022/05/11 09:18:11;;;;;;;6.50;5.90;;;21.40;62.10;;;;;;5074448;28;20413;-69
2022/05/11 09:20:37;;;;;;;6.70;6.20;;;21.40;62.10;;;;;;5074406;28;20492;-70
2022/05/11 09:23:04;;;;;;;6.83;6.33;;;21.40;62.00;;;;;;5073310;28;20179;-70
2022/05/11 09:25:51;;;;;;;6.80;6.30;;;21.40;62.10;;;;;;5074259;28;20241;-69
2022/05/11 09:28:26;;;;;;;7.13;6.73;;;21.40;62.20;;;;;;5074135;28;20453;-69
2022/05/11 09:31:04;;;;;;;6.40;6.00;;;21.50;62.20;;;;;;5074286;28;20922;-69
2022/05/11 09:33:38;;;;;;;7.33;6.73;;;21.50;62.00;;;;;;5073503;28;20443;-69
2022/05/11 09:36:05;;;;;;;6.87;6.30;;;21.40;61.90;;;;;;5074981;28;20443;-67
2022/05/11 09:39:02;;;;;;;6.87;6.37;;;21.40;62.00;;;;;;5083055;28;20824;-68
2022/05/11 09:41:29;;;;;;;7.07;6.47;;;21.50;61.90;;;;;;5074118;28;20484;-71
2022/05/11 09:43:58;;;;;;;8.23;7.67;;;21.50;62.00;;;;;;5073953;28;20410;-70
2022/05/11 09:46:27;;;;;;;6.53;6.03;;;21.50;62.00;;;;;;5073782;28;20452;-70
2022/05/11 09:48:58;;;;;;;6.90;6.50;;;21.40;62.00;;;;;;5074031;28;20548;-70
2022/05/11 09:51:35;;;;;;;5.93;5.53;;;21.40;61.90;;;;;;5073978;28;20848;-70
2022/05/11 09:54:16;;;;;;;6.60;6.20;;;21.40;61.90;;;;;;5073044;28;20452;-71
2022/05/11 09:56:57;;;;;;;6.57;6.07;;;21.40;62.00;;;;;;5073968;28;20490;-70
2022/05/11 09:59:45;;;;;;;7.13;6.63;;;21.40;61.90;;;;;;5073937;28;20868;-69
2022/05/11 10:02:25;;;;;;;6.77;6.30;;;21.40;61.90;;;;;;5073932;28;20765;-69
2022/05/11 10:05:12;;;;;;;7.07;6.67;;;21.30;61.90;;;;;;5077202;28;20410;-70
2022/05/11 10:08:01;;;;;;;6.23;5.73;;;21.30;61.90;;;;;;5077850;28;20489;-71
2022/05/11 10:10:37;;;;;;;7.10;6.60;;;21.30;62.00;;;;;;5077112;28;20429;-70
2022/05/11 10:13:36;;;;;;;6.60;6.10;;;21.30;61.90;;;;;;5057758;28;20398;-69
2022/05/11 10:21:56;;;;;;;6.67;6.27;;;21.30;61.90;;;;;;5057779;28;20409;-68
2022/05/11 10:24:25;;;;;;;6.63;6.13;;;21.30;61.80;;;;;;5057651;28;20394;-68
2022/05/11 10:27:23;;;;;;;6.43;6.03;;;21.30;61.90;;;;;;5057484;28;20430;-69
2022/05/11 10:30:03;;;;;;;6.53;6.10;;;21.30;61.80;;;;;;5057594;28;20502;-69
2022/05/11 10:32:42;;;;;;;7.03;6.53;;;21.30;61.90;;;;;;5057519;28;20433;-69
2022/05/11 10:35:33;;;;;;;6.43;6.03;;;21.20;62.20;;;;;;5057402;28;20412;-68
2022/05/11 10:38:02;;;;;;;7.27;6.70;;;21.20;62.40;;;;;;5057682;28;20471;-71
2022/05/11 10:40:53;;;;;;;6.87;6.37;;;21.20;62.50;;;;;;5057364;28;20398;-70
2022/05/11 10:43:21;;;;;;;6.53;6.03;;;21.20;62.50;;;;;;5057243;28;20445;-70
2022/05/11 10:45:59;;;;;;;6.93;6.43;;;21.20;62.50;;;;;;5074398;28;20440;-68
2022/05/11 10:48:51;;;;;;;7.00;6.50;;;21.30;62.60;;;;;;5076972;28;20979;-70
2022/05/11 10:51:42;;;;;;;7.33;6.83;;;21.30;62.60;;;;;;5083013;28;20428;-70
2022/05/11 10:54:19;;;;;;;6.90;6.27;;;21.20;62.70;;;;;;5091780;28;20459;-69
2022/05/11 10:57:27;;;;;;;7.07;6.57;;;21.30;62.70;;;;;;5097238;28;20444;-68
2022/05/11 11:00:08;;;;;;;6.80;6.20;;;21.30;62.60;;;;;;5097382;28;20408;-69
2022/05/11 11:03:01;;;;;;;6.90;6.40;;;21.30;62.90;;;;;;5097275;28;20726;-68
2022/05/11 11:07:11;;;;;;;7.17;6.67;;;21.30;62.70;;;;;;5097146;28;20397;-68
2022/05/11 11:08:58;;;;;;;7.27;6.67;;;21.30;62.80;;;;;;5096900;28;20808;-68
2022/05/11 11:12:06;;;;;;;7.13;6.63;;;21.30;63.00;;;;;;5097088;28;20395;-69
2022/05/11 11:14:38;;;;;;;7.27;6.77;;;21.30;63.00;;;;;;5097014;28;20408;-69
2022/05/11 11:17:07;;;;;;;6.47;6.07;;;21.30;63.10;;;;;;5096505;28;20429;-69
2022/05/11 11:19:34;;;;;;;7.00;6.40;;;21.30;63.00;;;;;;5097144;28;20423;-69
2022/05/11 11:22:01;;;;;;;6.87;6.37;;;21.30;63.10;;;;;;5096843;28;20502;-70
2022/05/11 11:24:28;;;;;;;6.93;6.33;;;21.30;63.20;;;;;;5096865;28;20408;-70
2022/05/11 11:27:06;;;;;;;7.63;7.13;;;21.30;63.10;;;;;;5096702;28;20436;-70
2022/05/11 11:29:59;;;;;;;7.37;6.77;;;21.30;63.10;;;;;;5092519;28;20916;-70
2022/05/11 11:32:24;;;;;;;7.03;6.53;;;21.30;63.20;;;;;;5056259;28;20406;-69
2022/05/11 11:35:11;;;;;;;7.23;6.73;;;21.30;63.10;;;;;;5056284;28;20394;-69
2022/05/11 11:37:42;;;;;;;6.80;6.30;;;21.30;63.20;;;;;;5055939;28;20290;-69
2022/05/11 11:40:13;;;;;;;7.30;6.73;;;21.30;63.30;;;;;;5056131;28;20469;-68
2022/05/11 11:42:46;;;;;;;7.93;7.27;;;21.30;63.20;;;;;;5056190;28;20409;-68
2022/05/11 11:45:37;;;;;;;7.83;7.23;;;21.30;62.90;;;;;;5056068;28;20804;-69
2022/05/11 11:48:05;;;;;;;7.60;7.10;;;21.40;62.80;;;;;;5055747;28;20474;-69
2022/05/11 11:50:48;;;;;;;7.80;7.23;;;21.40;62.90;;;;;;5055985;28;20492;-69
2022/05/11 11:53:31;;;;;;;7.97;7.47;;;21.40;63.10;;;;;;5056022;28;20382;-69
2022/05/11 11:56:35;;;;;;;7.80;7.30;;;21.30;63.20;;;;;;5055791;28;20417;-69
2022/05/11 11:59:24;;;;;;;8.23;7.53;;;21.30;63.20;;;;;;5054926;28;20424;-69
2022/05/11 12:01:54;;;;;;;7.50;7.00;;;21.30;63.30;;;;;;5055802;28;20744;-68
2022/05/11 12:04:34;;;;;;;7.43;6.93;;;21.40;63.20;;;;;;5055740;28;20513;-70
2022/05/11 12:15:31;;;;;;;9.13;8.20;;;21.40;63.40;;;;;;5057906;28;20398;-69
2022/05/11 12:17:57;;;;;;;12.57;11.37;;;21.40;63.40;;;;;;5060894;28;20875;-68
2022/05/11 12:20:23;;;;;;;12.80;10.70;;;21.40;63.40;;;;;;5067388;28;20418;-67
2022/05/11 12:22:58;;;;;;;11.50;10.40;;;21.40;63.40;;;;;;5061760;28;20486;-70
2022/05/11 12:25:29;;;;;;;10.97;9.87;;;21.40;63.60;;;;;;5075173;28;20871;-70
2022/05/11 12:27:57;;;;;;;11.17;10.07;;;21.40;63.40;;;;;;5073199;28;20449;-69
2022/05/11 12:30:40;;;;;;;8.70;7.80;;;21.40;63.30;;;;;;5068941;28;20401;-69
2022/05/11 12:33:08;;;;;;;8.00;7.30;;;21.40;61.80;;;;;;5052781;28;20531;-68
2022/05/11 12:35:35;;;;;;;6.90;6.40;;;21.40;60.30;;;;;;5068440;28;20851;-67
2022/05/11 12:38:09;;;;;;;7.07;6.33;;;21.40;59.70;;;;;;5058817;28;20426;-69
2022/05/11 12:40:41;;;;;;;7.00;6.40;;;21.40;58.70;;;;;;5058193;28;20513;-70
2022/05/11 12:43:12;;;;;;;6.30;5.70;;;21.40;58.00;;;;;;5055028;28;20427;-70
2022/05/11 12:45:45;;;;;;;6.37;5.77;;;21.40;57.70;;;;;;5054964;28;20453;-70
2022/05/11 12:48:22;;;;;;;6.93;6.20;;;21.40;57.10;;;;;;5054860;28;20469;-69
2022/05/11 12:51:08;;;;;;;6.17;5.67;;;21.50;56.60;;;;;;5054994;28;20430;-69
2022/05/11 12:53:49;;;;;;;5.50;5.00;;;21.50;55.90;;;;;;5054944;28;20390;-69
2022/05/11 12:56:20;;;;;;;5.80;5.30;;;21.50;55.80;;;;;;5071393;28;20479;-69
2022/05/11 12:58:56;;;;;;;4.87;4.40;;;21.50;54.70;;;;;;5073706;28;20433;-68
2022/05/11 13:01:29;;;;;;;4.90;4.60;;;21.50;54.50;;;;;;5074568;28;20416;-69
2022/05/11 13:04:00;;;;;;;5.10;4.80;;;21.50;54.40;;;;;;5071744;28;20409;-69
2022/05/11 13:06:40;;;;;;;4.90;4.50;;;21.50;54.70;;;;;;5054259;28;20430;-69
2022/05/11 13:09:17;;;;;;;4.57;4.27;;;21.60;54.70;;;;;;5054484;28;20445;-69
2022/05/11 13:11:44;;;;;;;6.13;5.00;;;21.60;54.40;;;;;;5054280;28;20399;-69
2022/05/11 13:14:23;;;;;;;4.90;4.50;;;21.60;54.40;;;;;;5054265;28;20413;-70
2022/05/11 13:16:51;;;;;;;4.80;4.50;;;21.60;54.30;;;;;;5056424;28;20494;-70
2022/05/11 13:19:38;;;;;;;4.73;4.43;;;21.60;54.20;;;;;;5084988;28;20752;-70
2022/05/11 13:22:11;;;;;;;5.00;4.60;;;21.60;53.70;;;;;;5086011;28;20409;-70
2022/05/11 13:24:42;;;;;;;5.00;4.60;;;21.60;53.90;;;;;;5074454;28;20404;-70
2022/05/11 13:27:32;;;;;;;4.93;4.57;;;21.60;54.10;;;;;;5074550;28;20484;-70
2022/05/11 13:30:21;;;;;;;5.20;4.90;;;21.60;54.40;;;;;;5074412;28;20401;-70
2022/05/11 13:32:55;;;;;;;5.30;4.90;;;21.60;54.60;;;;;;5074418;28;20378;-70
2022/05/11 13:35:37;;;;;;;4.80;4.50;;;21.60;54.70;;;;;;5074273;28;20507;-70
2022/05/11 13:38:08;;;;;;;4.80;4.50;;;21.50;54.90;;;;;;5074051;28;20396;-69
2022/05/11 13:40:49;;;;;;;5.27;4.87;;;21.50;55.00;;;;;;5074335;28;20393;-70
2022/05/11 13:43:24;;;;;;;4.83;4.33;;;21.50;55.20;;;;;;5074244;28;20423;-70
2022/05/11 13:46:01;;;;;;;4.73;4.33;;;21.50;55.30;;;;;;5074128;28;20874;-70
2022/05/11 13:48:37;;;;;;;5.23;4.83;;;21.50;55.50;;;;;;5073951;28;20465;-70